Time;durP1;ratioP1;P1;durP2;ratioP2;P2;SDS_P1;SDS_P2;PMS_P1;PMS_P2;Temp;Humidity;BMP_temperature;BMP_pressure;BME280_temperature;BME280_humidity;BME280_pressure;Samples;Min_cycle;Max_cycle;Signal;HPM_P1;HPM_P2
2023/03/05 00:01:50;;;;;;;;;;;3.60;99.90;;;;;;5125949;27;19924;-81
2023/03/05 00:04:16;;;;;;;;;;;3.60;99.90;;;;;;5061048;28;19945;-81
2023/03/05 00:06:42;;;;;;;;;;;3.60;99.90;;;;;;5078065;28;19924;-81
2023/03/05 00:09:07;;;;;;;;;;;3.60;99.90;;;;;;5077047;28;19928;-81
2023/03/05 00:11:33;;;;;;;;;;;3.60;99.90;;;;;;5094607;28;20014;-81
2023/03/05 00:14:00;;;;;;;;;;;3.50;99.90;;;;;;5078403;28;20458;-81
2023/03/05 00:16:27;;;;;;;;;;;3.50;99.90;;;;;;5077671;28;19959;-81
2023/03/05 00:18:53;;;;;;;;;;;3.50;99.90;;;;;;5076925;28;19924;-81
2023/03/05 00:21:19;;;;;;;;;;;3.50;99.90;;;;;;5059255;28;19949;-81
2023/03/05 00:23:44;;;;;;;;;;;3.60;99.90;;;;;;5095065;28;20015;-81
2023/03/05 00:26:10;;;;;;;;;;;3.50;99.90;;;;;;5126602;28;19938;-81
2023/03/05 00:28:35;;;;;;;;;;;3.50;99.90;;;;;;5060961;28;19932;-81
2023/03/05 00:31:01;;;;;;;;;;;3.50;99.90;;;;;;5093204;28;19958;-81
2023/03/05 00:33:26;;;;;;;;;;;3.50;99.90;;;;;;5062934;28;20084;-81
2023/03/05 00:35:52;;;;;;;;;;;3.50;99.90;;;;;;5078190;28;19924;-81
2023/03/05 00:38:18;;;;;;;;;;;3.50;99.90;;;;;;5059576;28;19936;-81
2023/03/05 00:40:44;;;;;;;;;;;3.50;99.90;;;;;;5061054;28;19995;-81
2023/03/05 00:43:09;;;;;;;;;;;3.50;99.90;;;;;;5075062;28;20003;-81
2023/03/05 00:45:35;;;;;;;;;;;3.50;99.90;;;;;;5077775;28;19939;-81
2023/03/05 00:48:01;;;;;;;;;;;3.50;99.90;;;;;;5062610;28;19963;-80
2023/03/05 00:50:27;;;;;;;;;;;3.50;99.90;;;;;;5042819;28;19928;-80
2023/03/05 00:52:53;;;;;;;;;;;3.40;99.90;;;;;;5048775;28;19924;-80
2023/03/05 00:55:18;;;;;;;;;;;3.50;99.90;;;;;;5089204;28;19971;-81
2023/03/05 00:57:44;;;;;;;;;;;3.40;99.90;;;;;;5084276;28;20280;-80
2023/03/05 01:00:11;;;;;;;;;;;3.40;99.90;;;;;;5091450;28;19935;-80
2023/03/05 01:02:37;;;;;;;;;;;3.40;99.90;;;;;;5076192;28;19971;-81
2023/03/05 01:05:03;;;;;;;;;;;3.40;99.90;;;;;;5067332;28;19928;-80
2023/03/05 01:07:28;;;;;;;;;;;3.40;99.90;;;;;;5076905;28;19934;-80
2023/03/05 01:09:54;;;;;;;;;;;3.40;99.90;;;;;;5060711;28;19995;-80
2023/03/05 01:12:19;;;;;;;;;;;3.40;99.90;;;;;;5058992;28;19930;-80
2023/03/05 01:14:45;;;;;;;;;;;3.40;99.90;;;;;;5072147;28;19928;-80
2023/03/05 01:17:11;;;;;;;;;;;3.40;99.90;;;;;;5009407;28;1815901;-80
2023/03/05 01:19:36;;;;;;;;;;;3.40;99.90;;;;;;5049758;28;19947;-80
2023/03/05 01:22:02;;;;;;;;;;;3.30;99.90;;;;;;5060642;28;20018;-80
2023/03/05 01:24:29;;;;;;;;;;;3.30;99.90;;;;;;5077205;28;19928;-80
2023/03/05 01:26:54;;;;;;;;;;;3.30;99.90;;;;;;5077366;28;19938;-80
2023/03/05 01:29:20;;;;;;;;;;;3.30;99.90;;;;;;5076375;28;19979;-80
2023/03/05 01:31:45;;;;;;;;;;;3.30;99.90;;;;;;5081876;28;20014;-80
2023/03/05 01:34:12;;;;;;;;;;;3.30;99.90;;;;;;5060046;28;19935;-80
2023/03/05 01:36:39;;;;;;;;;;;3.30;99.90;;;;;;5076753;28;19983;-80
2023/03/05 01:39:05;;;;;;;;;;;3.30;99.90;;;;;;5104061;28;19928;-80
2023/03/05 01:41:32;;;;;;;;;;;3.20;99.90;;;;;;5060111;28;20010;-80
2023/03/05 01:43:58;;;;;;;;;;;3.20;99.90;;;;;;5061031;28;19933;-80
2023/03/05 01:46:27;;;;;;;;;;;3.20;99.90;;;;;;5065587;28;19924;-80
2023/03/05 01:49:18;;;;;;;;;;;3.20;99.90;;;;;;5078383;28;19924;-80
2023/03/05 01:51:50;;;;;;;;;;;3.10;99.90;;;;;;5115118;27;20461;-80
2023/03/05 01:54:18;;;;;;;;;;;3.10;99.90;;;;;;5081310;28;20029;-80
2023/03/05 01:56:44;;;;;;;;;;;3.10;99.90;;;;;;5079769;28;19987;-80
2023/03/05 01:59:11;;;;;;;;;;;3.00;99.90;;;;;;5068475;28;19984;-80
2023/03/05 02:01:45;;;;;;;;;;;3.00;99.90;;;;;;5079418;28;20031;-80
2023/03/05 02:04:13;;;;;;;;;;;3.00;99.90;;;;;;5080082;28;19924;-80
2023/03/05 02:06:40;;;;;;;;;;;3.00;99.90;;;;;;5080083;28;20389;-80
2023/03/05 02:09:05;;;;;;;;;;;3.10;99.90;;;;;;5080381;28;19949;-80
2023/03/05 02:11:31;;;;;;;;;;;3.10;99.90;;;;;;5064440;28;19955;-80
2023/03/05 02:13:57;;;;;;;;;;;3.10;99.90;;;;;;5080720;28;19946;-80
2023/03/05 02:16:23;;;;;;;;;;;3.10;99.90;;;;;;5084240;28;19930;-80
2023/03/05 02:18:48;;;;;;;;;;;3.10;99.90;;;;;;5114277;28;19924;-80
2023/03/05 02:21:25;;;;;;;;;;;3.10;99.90;;;;;;5079748;28;19928;-80
2023/03/05 02:23:51;;;;;;;;;;;3.10;99.90;;;;;;5081182;28;19925;-80
2023/03/05 02:26:17;;;;;;;;;;;3.10;99.90;;;;;;5095959;28;19924;-80
2023/03/05 02:28:48;;;;;;;;;;;3.10;99.90;;;;;;5062111;28;19925;-80
2023/03/05 02:31:18;;;;;;;;;;;3.10;99.90;;;;;;5081106;28;20306;-80
2023/03/05 02:33:44;;;;;;;;;;;3.10;99.90;;;;;;5079538;28;19924;-80
2023/03/05 02:36:10;;;;;;;;;;;3.10;99.90;;;;;;5063118;28;19939;-80
2023/03/05 02:38:36;;;;;;;;;;;3.20;99.90;;;;;;5079334;28;20009;-80
2023/03/05 02:41:02;;;;;;;;;;;3.10;99.90;;;;;;5060260;28;19936;-80
2023/03/05 02:43:27;;;;;;;;;;;3.20;99.90;;;;;;5073904;28;20329;-80
2023/03/05 02:45:53;;;;;;;;;;;3.20;99.90;;;;;;5078510;28;19931;-80
2023/03/05 02:48:19;;;;;;;;;;;3.20;99.90;;;;;;5063385;28;19928;-80
2023/03/05 02:50:45;;;;;;;;;;;3.20;99.90;;;;;;5069856;28;19932;-80
2023/03/05 02:53:10;;;;;;;;;;;3.20;99.90;;;;;;5078173;28;20457;-80
2023/03/05 02:55:36;;;;;;;;;;;3.20;99.90;;;;;;5122873;27;19974;-81
2023/03/05 02:58:02;;;;;;;;;;;3.20;99.90;;;;;;5080190;28;20398;-80
2023/03/05 03:00:28;;;;;;;;;;;3.20;99.90;;;;;;5095616;28;20381;-80
2023/03/05 03:02:53;;;;;;;;;;;3.20;99.90;;;;;;5096654;28;19945;-80
2023/03/05 03:05:19;;;;;;;;;;;3.20;99.90;;;;;;5121968;27;19988;-80
2023/03/05 03:07:45;;;;;;;;;;;3.30;99.90;;;;;;5090723;28;20131;-80
2023/03/05 03:10:11;;;;;;;;;;;3.20;99.90;;;;;;5080268;28;19925;-80
2023/03/05 03:12:41;;;;;;;;;;;3.30;99.90;;;;;;5095245;28;19969;-80
2023/03/05 03:15:09;;;;;;;;;;;3.30;99.90;;;;;;5079867;28;19924;-80
2023/03/05 03:17:35;;;;;;;;;;;3.30;99.90;;;;;;5078103;28;19967;-81
2023/03/05 03:20:02;;;;;;;;;;;3.30;99.90;;;;;;5061805;28;19928;-80
2023/03/05 03:22:27;;;;;;;;;;;3.30;99.90;;;;;;5096083;28;20032;-79
2023/03/05 03:24:53;;;;;;;;;;;3.30;99.90;;;;;;5129661;27;20025;-80
2023/03/05 03:27:19;;;;;;;;;;;3.30;99.90;;;;;;5078079;28;19950;-79
2023/03/05 03:29:44;;;;;;;;;;;3.30;99.90;;;;;;5061234;28;19924;-79
2023/03/05 03:32:10;;;;;;;;;;;3.20;99.90;;;;;;5066557;28;19951;-79
2023/03/05 03:34:35;;;;;;;;;;;3.20;99.90;;;;;;5094465;28;19932;-80
2023/03/05 03:37:01;;;;;;;;;;;3.20;99.90;;;;;;5096009;28;19931;-80
2023/03/05 03:39:26;;;;;;;;;;;3.20;99.90;;;;;;5095618;28;19928;-80
2023/03/05 03:41:52;;;;;;;;;;;3.10;99.90;;;;;;5078353;28;19983;-80
2023/03/05 03:44:19;;;;;;;;;;;3.10;99.90;;;;;;5072369;28;20317;-80
2023/03/05 03:46:45;;;;;;;;;;;3.10;99.90;;;;;;5063654;28;20127;-80
2023/03/05 03:49:14;;;;;;;;;;;3.10;99.90;;;;;;5111386;28;19928;-80
2023/03/05 03:51:40;;;;;;;;;;;3.10;99.90;;;;;;5066268;28;19928;-80
2023/03/05 03:54:06;;;;;;;;;;;3.10;99.90;;;;;;5062013;28;19928;-80
2023/03/05 03:56:31;;;;;;;;;;;3.10;99.90;;;;;;5071047;28;19924;-80
2023/03/05 03:58:57;;;;;;;;;;;3.10;99.90;;;;;;5078403;28;20383;-80
2023/03/05 04:01:22;;;;;;;;;;;3.10;99.90;;;;;;5078954;28;19964;-80
2023/03/05 04:03:48;;;;;;;;;;;3.00;99.90;;;;;;5077732;28;19924;-80
2023/03/05 04:06:13;;;;;;;;;;;3.00;99.90;;;;;;5062362;28;20045;-80
2023/03/05 04:08:39;;;;;;;;;;;3.00;99.90;;;;;;5070036;28;19925;-80
2023/03/05 04:11:05;;;;;;;;;;;2.90;99.90;;;;;;5107065;28;19928;-80
2023/03/05 04:13:31;;;;;;;;;;;2.90;99.90;;;;;;5077785;28;19971;-80
2023/03/05 04:15:56;;;;;;;;;;;2.90;99.90;;;;;;5072185;28;19935;-79
2023/03/05 04:18:22;;;;;;;;;;;2.90;99.90;;;;;;5061933;28;19924;-80
2023/03/05 04:20:47;;;;;;;;;;;2.90;99.90;;;;;;5068678;28;20042;-79
2023/03/05 04:23:13;;;;;;;;;;;2.90;99.90;;;;;;5058860;28;19971;-79
2023/03/05 04:25:39;;;;;;;;;;;2.90;99.90;;;;;;5094268;28;19995;-80
2023/03/05 04:28:04;;;;;;;;;;;3.00;99.90;;;;;;5095072;28;19971;-79
2023/03/05 04:30:30;;;;;;;;;;;3.00;99.90;;;;;;5061283;28;19924;-79
2023/03/05 04:32:56;;;;;;;;;;;3.00;99.90;;;;;;5077403;28;19928;-79
2023/03/05 04:35:21;;;;;;;;;;;3.00;99.90;;;;;;5084736;28;19997;-79
2023/03/05 04:37:47;;;;;;;;;;;3.00;99.90;;;;;;5076526;28;19924;-79
2023/03/05 04:40:13;;;;;;;;;;;3.00;99.90;;;;;;5078737;28;19928;-79
2023/03/05 04:42:38;;;;;;;;;;;3.10;99.90;;;;;;5077049;28;19923;-79
2023/03/05 04:45:05;;;;;;;;;;;3.00;99.90;;;;;;5074861;28;19925;-79
2023/03/05 04:47:31;;;;;;;;;;;3.00;99.90;;;;;;5060529;28;19924;-79
2023/03/05 04:49:56;;;;;;;;;;;3.00;99.90;;;;;;5069989;28;19932;-79
2023/03/05 04:52:22;;;;;;;;;;;3.00;99.90;;;;;;5056107;28;20371;-79
2023/03/05 04:54:47;;;;;;;;;;;2.90;99.90;;;;;;5061156;28;19924;-79
2023/03/05 04:57:13;;;;;;;;;;;2.90;99.90;;;;;;5094463;28;19924;-79
2023/03/05 04:59:39;;;;;;;;;;;2.90;99.90;;;;;;5072289;28;19932;-79
2023/03/05 05:02:04;;;;;;;;;;;2.90;99.90;;;;;;5052565;28;19924;-79
2023/03/05 05:04:30;;;;;;;;;;;2.90;99.90;;;;;;5058855;28;19924;-79
2023/03/05 05:06:56;;;;;;;;;;;3.00;99.90;;;;;;5065469;28;19927;-79
2023/03/05 05:09:22;;;;;;;;;;;3.00;99.90;;;;;;5064583;28;19934;-79
2023/03/05 05:11:48;;;;;;;;;;;2.90;99.90;;;;;;5080622;28;19967;-79
2023/03/05 05:14:13;;;;;;;;;;;3.00;99.90;;;;;;5065555;28;19935;-79
2023/03/05 05:16:39;;;;;;;;;;;2.90;99.90;;;;;;5080320;28;19993;-79
2023/03/05 05:19:05;;;;;;;;;;;2.90;99.90;;;;;;5065664;28;19924;-79
2023/03/05 05:21:30;;;;;;;;;;;3.00;99.90;;;;;;5063974;28;20473;-79
2023/03/05 05:23:56;;;;;;;;;;;2.90;99.90;;;;;;5080039;28;19975;-79
2023/03/05 05:26:22;;;;;;;;;;;3.00;99.90;;;;;;5071265;28;19975;-79
2023/03/05 05:28:47;;;;;;;;;;;3.00;99.90;;;;;;5081703;28;20496;-79
2023/03/05 05:31:14;;;;;;;;;;;3.00;99.90;;;;;;5081843;28;19924;-79
2023/03/05 05:33:40;;;;;;;;;;;3.10;99.90;;;;;;5080284;28;19924;-79
2023/03/05 05:36:07;;;;;;;;;;;3.10;99.90;;;;;;5078295;28;19934;-79
2023/03/05 05:38:32;;;;;;;;;;;3.10;99.90;;;;;;5096694;28;19924;-79
2023/03/05 05:41:05;;;;;;;;;;;3.10;99.90;;;;;;5082060;28;19978;-79
2023/03/05 05:43:30;;;;;;;;;;;3.00;99.90;;;;;;5080825;28;19924;-79
2023/03/05 05:46:00;;;;;;;;;;;3.10;99.90;;;;;;5095528;28;20477;-79
2023/03/05 05:48:27;;;;;;;;;;;3.10;99.90;;;;;;5064694;28;19928;-79
2023/03/05 05:50:52;;;;;;;;;;;3.10;99.90;;;;;;5065937;28;19925;-79
2023/03/05 05:53:18;;;;;;;;;;;3.00;99.90;;;;;;5081771;28;19970;-79
2023/03/05 05:55:43;;;;;;;;;;;3.00;99.90;;;;;;5062505;28;19950;-79
2023/03/05 05:58:09;;;;;;;;;;;3.00;99.90;;;;;;5074875;28;19943;-79
2023/03/05 06:00:34;;;;;;;;;;;2.90;99.90;;;;;;5106048;28;19928;-79
2023/03/05 06:03:00;;;;;;;;;;;2.90;99.90;;;;;;5080782;28;19932;-79
2023/03/05 06:05:25;;;;;;;;;;;2.80;99.90;;;;;;5064351;28;20024;-79
2023/03/05 06:07:51;;;;;;;;;;;2.70;99.90;;;;;;5063088;28;19928;-79
2023/03/05 06:10:17;;;;;;;;;;;2.70;99.90;;;;;;5079742;28;20379;-79
2023/03/05 06:12:42;;;;;;;;;;;2.60;99.90;;;;;;5072671;28;19925;-79
2023/03/05 06:15:08;;;;;;;;;;;2.60;99.90;;;;;;5077619;28;19931;-79
2023/03/05 06:17:34;;;;;;;;;;;2.50;99.90;;;;;;5104907;28;19928;-79
2023/03/05 06:19:59;;;;;;;;;;;2.50;99.90;;;;;;5098000;28;19924;-79
2023/03/05 06:22:25;;;;;;;;;;;2.50;99.90;;;;;;5094927;28;20414;-79
2023/03/05 06:24:51;;;;;;;;;;;2.50;99.90;;;;;;5109154;28;19932;-79
2023/03/05 06:27:17;;;;;;;;;;;2.40;99.90;;;;;;5080840;28;19946;-79
2023/03/05 06:29:42;;;;;;;;;;;2.40;99.90;;;;;;5079453;28;19991;-79
2023/03/05 06:32:08;;;;;;;;;;;2.50;99.90;;;;;;5080779;28;19932;-79
2023/03/05 06:34:33;;;;;;;;;;;2.50;99.90;;;;;;5061436;28;19939;-79
2023/03/05 06:36:59;;;;;;;;;;;2.50;99.90;;;;;;5062988;28;19928;-79
2023/03/05 06:39:24;;;;;;;;;;;2.60;99.90;;;;;;5070095;28;19964;-79
2023/03/05 06:41:51;;;;;;;;;;;2.60;99.90;;;;;;5056919;28;19935;-79
2023/03/05 06:44:16;;;;;;;;;;;2.70;99.90;;;;;;5060567;28;19936;-79
2023/03/05 06:46:42;;;;;;;;;;;2.70;99.90;;;;;;5062020;28;19924;-79
2023/03/05 06:49:09;;;;;;;;;;;2.80;99.90;;;;;;5095761;28;19946;-79
2023/03/05 06:51:36;;;;;;;;;;;2.80;99.90;;;;;;5066482;28;19924;-80
2023/03/05 06:54:03;;;;;;;;;;;2.80;99.90;;;;;;5080082;28;19924;-80
2023/03/05 06:56:29;;;;;;;;;;;2.80;99.90;;;;;;5076895;28;19931;-80
2023/03/05 06:58:55;;;;;;;;;;;2.70;99.90;;;;;;5079386;28;19924;-79
2023/03/05 07:01:22;;;;;;;;;;;2.80;99.90;;;;;;5073463;28;19924;-79
2023/03/05 07:03:51;;;;;;;;;;;2.70;99.90;;;;;;5078486;28;19924;-79
2023/03/05 07:06:18;;;;;;;;;;;2.70;99.90;;;;;;5080562;28;19932;-79
2023/03/05 07:08:43;;;;;;;;;;;2.70;99.90;;;;;;5078231;28;20378;-80
2023/03/05 07:11:11;;;;;;;;;;;2.70;99.90;;;;;;5078198;28;20107;-80
2023/03/05 07:13:36;;;;;;;;;;;2.70;99.90;;;;;;5099723;28;19932;-80
2023/03/05 07:16:09;;;;;;;;;;;2.70;99.90;;;;;;5079011;28;19924;-79
2023/03/05 07:18:34;;;;;;;;;;;2.80;99.90;;;;;;5079879;28;19950;-79
2023/03/05 07:21:04;;;;;;;;;;;2.80;99.90;;;;;;5061812;28;19924;-79
2023/03/05 07:23:30;;;;;;;;;;;2.90;99.90;;;;;;5078649;28;19924;-79
2023/03/05 07:25:55;;;;;;;;;;;2.80;99.90;;;;;;5095536;28;19988;-79
2023/03/05 07:28:21;;;;;;;;;;;2.90;99.90;;;;;;5097403;28;19981;-79
2023/03/05 07:30:54;;;;;;;;;;;3.00;99.90;;;;;;5080712;28;19923;-79
2023/03/05 07:33:20;;;;;;;;;;;3.10;99.90;;;;;;5069806;28;19935;-79
2023/03/05 07:35:45;;;;;;;;;;;3.20;99.90;;;;;;5063046;28;19932;-79
2023/03/05 07:38:11;;;;;;;;;;;3.30;99.90;;;;;;5061296;28;19924;-79
2023/03/05 07:40:37;;;;;;;;;;;3.40;99.90;;;;;;5092086;28;19924;-79
2023/03/05 07:43:02;;;;;;;;;;;3.50;99.90;;;;;;5062767;28;19935;-79
2023/03/05 07:45:28;;;;;;;;;;;3.70;99.90;;;;;;5073530;28;19956;-79
2023/03/05 07:47:54;;;;;;;;;;;3.90;99.90;;;;;;5051512;28;19928;-79
2023/03/05 07:50:20;;;;;;;;;;;4.00;99.90;;;;;;5066740;28;20008;-79
2023/03/05 07:52:46;;;;;;;;;;;4.10;99.90;;;;;;5076293;28;19932;-79
2023/03/05 07:55:11;;;;;;;;;;;4.10;99.90;;;;;;5069730;28;19924;-79
2023/03/05 07:57:37;;;;;;;;;;;4.10;99.90;;;;;;5076762;28;19928;-79
2023/03/05 08:00:04;;;;;;;;;;;4.10;99.90;;;;;;5058562;28;19925;-79
2023/03/05 08:02:29;;;;;;;;;;;4.10;99.90;;;;;;5060378;28;19971;-79
2023/03/05 08:04:55;;;;;;;;;;;4.10;99.90;;;;;;5075130;28;19928;-79
2023/03/05 08:07:21;;;;;;;;;;;4.20;99.90;;;;;;5076279;28;19928;-80
2023/03/05 08:09:46;;;;;;;;;;;4.30;99.90;;;;;;5060453;28;19971;-79
2023/03/05 08:12:12;;;;;;;;;;;4.50;99.90;;;;;;5075315;28;19924;-79
2023/03/05 08:14:37;;;;;;;;;;;4.70;99.90;;;;;;5075697;28;19928;-79
2023/03/05 08:17:04;;;;;;;;;;;4.80;99.90;;;;;;5068411;28;19943;-79
2023/03/05 08:19:29;;;;;;;;;;;4.90;99.90;;;;;;5073933;28;20383;-79
2023/03/05 08:21:55;;;;;;;;;;;5.00;99.90;;;;;;5064519;28;19928;-79
2023/03/05 08:24:22;;;;;;;;;;;5.10;99.90;;;;;;5079199;28;19924;-79
2023/03/05 08:26:47;;;;;;;;;;;5.10;99.90;;;;;;5061570;28;19931;-79
2023/03/05 08:29:13;;;;;;;;;;;5.10;99.90;;;;;;5094817;28;19928;-79
2023/03/05 08:31:38;;;;;;;;;;;5.10;99.90;;;;;;5059674;28;19928;-83
2023/03/05 08:34:04;;;;;;;;;;;5.10;99.90;;;;;;5092486;28;19967;-80
2023/03/05 08:36:30;;;;;;;;;;;5.10;99.90;;;;;;5095861;28;19931;-80
2023/03/05 08:38:58;;;;;;;;;;;5.10;99.90;;;;;;5077605;28;19928;-80
2023/03/05 08:41:24;;;;;;;;;;;5.20;99.90;;;;;;5082676;28;19932;-80
2023/03/05 08:43:49;;;;;;;;;;;5.40;99.90;;;;;;5082290;28;19924;-79
2023/03/05 08:46:15;;;;;;;;;;;5.50;99.90;;;;;;5065189;28;19924;-80
2023/03/05 08:48:41;;;;;;;;;;;5.70;99.90;;;;;;5099672;28;19928;-81
2023/03/05 08:51:08;;;;;;;;;;;5.90;99.90;;;;;;5062649;28;19932;-80
2023/03/05 08:53:34;;;;;;;;;;;6.10;99.90;;;;;;5072874;28;19984;-80
2023/03/05 08:55:59;;;;;;;;;;;6.40;99.90;;;;;;5080756;28;19971;-81
2023/03/05 08:58:25;;;;;;;;;;;6.60;99.90;;;;;;5082092;28;19924;-80
2023/03/05 09:00:51;;;;;;;;;;;6.80;99.90;;;;;;5098948;28;20030;-80
2023/03/05 09:03:17;;;;;;;;;;;6.90;99.90;;;;;;5098670;28;20407;-81
2023/03/05 09:05:42;;;;;;;;;;;7.10;99.90;;;;;;5099311;28;19970;-80
2023/03/05 09:08:08;;;;;;;;;;;7.10;99.90;;;;;;5063858;28;19924;-80
2023/03/05 09:10:34;;;;;;;;;;;7.10;99.90;;;;;;5082750;28;20015;-80
2023/03/05 09:12:59;;;;;;;;;;;7.10;99.90;;;;;;5097673;28;20001;-80
2023/03/05 09:15:25;;;;;;;;;;;7.00;99.90;;;;;;5065356;28;19956;-80
2023/03/05 09:17:50;;;;;;;;;;;7.00;99.90;;;;;;5081107;28;19924;-81
2023/03/05 09:20:16;;;;;;;;;;;6.90;99.90;;;;;;5081528;28;19942;-80
2023/03/05 09:22:42;;;;;;;;;;;6.90;99.90;;;;;;5065691;28;20003;-80
2023/03/05 09:25:09;;;;;;;;;;;6.90;99.90;;;;;;5093375;28;19924;-80
2023/03/05 09:27:35;;;;;;;;;;;6.90;99.90;;;;;;5088502;28;19924;-80
2023/03/05 09:30:01;;;;;;;;;;;6.80;99.90;;;;;;5079966;28;19935;-80
2023/03/05 09:32:26;;;;;;;;;;;6.90;99.90;;;;;;5065573;28;19928;-80
2023/03/05 09:34:52;;;;;;;;;;;6.90;99.90;;;;;;5064310;28;19987;-81
2023/03/05 09:37:17;;;;;;;;;;;6.90;99.90;;;;;;5081273;28;19924;-81
2023/03/05 09:39:43;;;;;;;;;;;6.90;99.90;;;;;;5082193;28;19924;-80
2023/03/05 09:42:29;;;;;;;;;;;6.90;99.90;;;;;;5079951;28;19924;-81
2023/03/05 09:45:13;;;;;;;;;;;7.00;99.90;;;;;;5084625;28;19928;-80
2023/03/05 09:47:39;;;;;;;;;;;7.00;99.90;;;;;;5101387;28;19945;-80
2023/03/05 09:50:23;;;;;;;;;;;7.20;99.90;;;;;;5088119;28;19971;-80
2023/03/05 09:52:52;;;;;;;;;;;7.30;99.90;;;;;;5096870;28;19928;-82
2023/03/05 09:55:21;;;;;;;;;;;7.50;99.90;;;;;;5079849;28;19924;-81
2023/03/05 09:57:53;;;;;;;;;;;7.70;99.90;;;;;;5081000;28;19928;-80
2023/03/05 10:00:39;;;;;;;;;;;7.80;99.90;;;;;;5080191;28;19928;-80
2023/03/05 10:03:08;;;;;;;;;;;7.80;99.90;;;;;;5097543;28;19976;-80
2023/03/05 10:05:53;;;;;;;;;;;7.90;99.90;;;;;;5081937;28;19928;-80
2023/03/05 10:08:21;;;;;;;;;;;7.90;99.90;;;;;;5065560;28;19974;-81
2023/03/05 10:10:49;;;;;;;;;;;7.70;99.90;;;;;;5098160;28;19935;-81
2023/03/05 10:13:25;;;;;;;;;;;7.50;99.90;;;;;;5079578;28;19928;-81
2023/03/05 10:15:57;;;;;;;;;;;7.30;99.90;;;;;;5097279;28;19931;-81
2023/03/05 10:18:23;;;;;;;;;;;7.40;99.90;;;;;;5080675;28;19924;-80
2023/03/05 10:20:59;;;;;;;;;;;7.50;99.90;;;;;;5096354;28;19935;-80
2023/03/05 10:23:37;;;;;;;;;;;7.60;99.90;;;;;;5097920;28;19989;-80
2023/03/05 10:26:13;;;;;;;;;;;7.80;99.90;;;;;;5079346;28;19956;-80
2023/03/05 10:28:45;;;;;;;;;;;8.00;99.90;;;;;;5079686;28;19928;-80
2023/03/05 10:31:29;;;;;;;;;;;8.30;99.90;;;;;;5081264;28;19924;-80
2023/03/05 10:34:22;;;;;;;;;;;8.40;99.90;;;;;;5079228;28;19970;-80
2023/03/05 10:36:48;;;;;;;;;;;8.50;99.90;;;;;;5064752;28;19987;-81
2023/03/05 10:39:38;;;;;;;;;;;8.40;99.90;;;;;;5096496;28;19974;-80
2023/03/05 10:42:21;;;;;;;;;;;8.20;99.90;;;;;;5079085;28;19934;-80
2023/03/05 10:44:53;;;;;;;;;;;8.10;99.90;;;;;;5080725;28;19945;-80
2023/03/05 10:47:37;;;;;;;;;;;7.80;99.90;;;;;;5078781;28;19935;-80
2023/03/05 10:50:14;;;;;;;;;;;7.80;99.90;;;;;;5070506;28;19924;-80
2023/03/05 10:52:45;;;;;;;;;;;7.70;99.90;;;;;;5077444;28;19924;-80
2023/03/05 10:55:20;;;;;;;;;;;7.80;99.90;;;;;;5095487;28;19924;-80
2023/03/05 10:57:46;;;;;;;;;;;7.80;99.90;;;;;;5094181;28;19933;-80
2023/03/05 11:00:25;;;;;;;;;;;7.90;99.90;;;;;;5101115;28;19935;-80
2023/03/05 11:02:52;;;;;;;;;;;7.90;99.90;;;;;;5095812;28;19928;-81
2023/03/05 11:05:41;;;;;;;;;;;7.80;99.90;;;;;;5079873;28;19924;-80
2023/03/05 11:08:24;;;;;;;;;;;7.90;99.90;;;;;;5069856;28;19928;-81
2023/03/05 11:11:08;;;;;;;;;;;8.00;99.90;;;;;;5080192;28;20314;-80
2023/03/05 11:13:35;;;;;;;;;;;8.00;99.90;;;;;;5059586;28;20063;-80
2023/03/05 11:16:03;;;;;;;;;;;8.10;99.90;;;;;;5105785;28;19945;-80
2023/03/05 11:18:33;;;;;;;;;;;8.00;99.90;;;;;;5096370;28;19924;-80
2023/03/05 11:21:06;;;;;;;;;;;8.10;99.90;;;;;;5078277;28;19932;-80
2023/03/05 11:23:32;;;;;;;;;;;8.20;99.90;;;;;;5096596;28;19981;-80
2023/03/05 11:26:02;;;;;;;;;;;8.30;99.90;;;;;;5078564;28;19928;-80
2023/03/05 11:28:30;;;;;;;;;;;8.30;99.90;;;;;;5078847;28;19988;-80
2023/03/05 11:31:00;;;;;;;;;;;8.20;99.90;;;;;;5096017;28;20006;-80
2023/03/05 11:33:25;;;;;;;;;;;8.00;99.90;;;;;;5078056;28;19924;-80
2023/03/05 11:36:07;;;;;;;;;;;8.10;99.90;;;;;;5078926;28;19947;-88
2023/03/05 11:38:42;;;;;;;;;;;8.10;99.90;;;;;;5106862;28;19924;-80
2023/03/05 11:41:08;;;;;;;;;;;8.10;99.90;;;;;;5078702;28;19966;-80
2023/03/05 11:43:36;;;;;;;;;;;8.20;99.90;;;;;;5073910;28;19925;-79
2023/03/05 11:46:03;;;;;;;;;;;8.30;99.90;;;;;;5080333;28;19924;-80
2023/03/05 11:48:33;;;;;;;;;;;8.30;99.90;;;;;;5096106;28;19924;-80
2023/03/05 11:51:00;;;;;;;;;;;8.50;99.90;;;;;;5063702;28;19969;-80
2023/03/05 11:53:30;;;;;;;;;;;8.50;99.90;;;;;;5093301;28;19938;-80
2023/03/05 11:56:13;;;;;;;;;;;8.30;99.50;;;;;;5091893;28;19946;-80
2023/03/05 11:58:59;;;;;;;;;;;8.30;99.90;;;;;;5072702;28;19927;-80
2023/03/05 12:01:26;;;;;;;;;;;8.40;99.90;;;;;;5072627;28;19935;-81
2023/03/05 12:03:51;;;;;;;;;;;8.40;99.90;;;;;;5092859;28;20363;-80
2023/03/05 12:06:17;;;;;;;;;;;8.10;99.90;;;;;;5090342;28;19974;-81
2023/03/05 12:08:45;;;;;;;;;;;8.10;99.90;;;;;;5073908;28;20314;-80
2023/03/05 12:11:16;;;;;;;;;;;8.00;99.90;;;;;;5076296;28;19927;-81
2023/03/05 12:13:44;;;;;;;;;;;8.00;99.90;;;;;;5075979;28;19927;-80
2023/03/05 12:16:24;;;;;;;;;;;7.90;99.90;;;;;;5094872;28;19950;-80
2023/03/05 12:18:56;;;;;;;;;;;7.90;99.90;;;;;;5095870;28;19935;-81
2023/03/05 12:21:21;;;;;;;;;;;7.80;99.90;;;;;;5077574;28;20329;-80
2023/03/05 12:23:48;;;;;;;;;;;7.60;99.90;;;;;;5078944;28;19968;-81
2023/03/05 12:26:14;;;;;;;;;;;7.60;99.90;;;;;;5094527;28;20349;-80
2023/03/05 12:28:39;;;;;;;;;;;7.60;99.90;;;;;;5060867;28;19924;-80
2023/03/05 12:31:08;;;;;;;;;;;7.50;99.90;;;;;;5095203;28;19934;-80
2023/03/05 12:33:33;;;;;;;;;;;7.50;99.90;;;;;;5077112;28;19962;-80
2023/03/05 12:36:18;;;;;;;;;;;7.40;99.90;;;;;;5078091;28;19924;-81
2023/03/05 12:38:45;;;;;;;;;;;7.40;99.90;;;;;;5081961;28;20348;-80
2023/03/05 12:41:22;;;;;;;;;;;7.40;99.90;;;;;;5093153;28;19925;-81
2023/03/05 12:44:03;;;;;;;;;;;7.30;99.90;;;;;;5056666;28;19946;-80
2023/03/05 12:46:31;;;;;;;;;;;7.40;99.90;;;;;;5089412;28;19924;-80
2023/03/05 12:48:57;;;;;;;;;;;7.50;99.90;;;;;;5111223;27;19935;-79
2023/03/05 12:51:38;;;;;;;;;;;7.60;99.90;;;;;;5041776;28;19924;-80
2023/03/05 12:54:18;;;;;;;;;;;7.80;99.90;;;;;;5062227;28;19924;-81
2023/03/05 12:56:45;;;;;;;;;;;8.00;99.90;;;;;;5063085;28;19954;-81
2023/03/05 12:59:11;;;;;;;;;;;8.20;99.90;;;;;;5073497;28;19925;-80
2023/03/05 13:01:43;;;;;;;;;;;8.20;99.90;;;;;;5044340;28;19964;-80
2023/03/05 13:04:18;;;;;;;;;;;8.30;99.90;;;;;;5083908;28;19971;-79
2023/03/05 13:06:44;;;;;;;;;;;8.50;99.90;;;;;;5092581;28;20306;-80
2023/03/05 13:09:23;;;;;;;;;;;8.60;99.90;;;;;;5090979;28;19997;-80
2023/03/05 13:11:50;;;;;;;;;;;8.70;99.90;;;;;;5090835;28;19926;-80
2023/03/05 13:14:39;;;;;;;;;;;8.70;99.90;;;;;;5092306;28;19931;-76
2023/03/05 13:17:23;;;;;;;;;;;8.60;99.90;;;;;;5047883;28;19924;-77
2023/03/05 13:19:49;;;;;;;;;;;8.50;99.90;;;;;;5091656;28;19953;-77
2023/03/05 13:22:15;;;;;;;;;;;8.40;99.90;;;;;;5074396;28;19967;-77
2023/03/05 13:24:40;;;;;;;;;;;8.30;99.90;;;;;;5075235;28;19971;-78
2023/03/05 13:27:28;;;;;;;;;;;8.10;99.90;;;;;;5061289;28;19928;-77
2023/03/05 13:29:54;;;;;;;;;;;8.10;99.90;;;;;;5093623;28;20019;-77
2023/03/05 13:32:25;;;;;;;;;;;7.90;99.90;;;;;;5059951;28;19970;-78
2023/03/05 13:34:52;;;;;;;;;;;7.80;99.90;;;;;;5060891;28;19970;-77
2023/03/05 13:37:19;;;;;;;;;;;7.70;99.90;;;;;;5097990;28;19924;-77
2023/03/05 13:39:53;;;;;;;;;;;7.70;99.90;;;;;;5069384;28;19983;-77
2023/03/05 13:42:27;;;;;;;;;;;7.60;99.90;;;;;;5060466;28;19928;-77
2023/03/05 13:44:57;;;;;;;;;;;7.60;99.90;;;;;;5095336;28;19931;-77
2023/03/05 13:47:27;;;;;;;;;;;7.60;99.90;;;;;;5092987;28;19928;-77
2023/03/05 13:50:05;;;;;;;;;;;7.60;99.90;;;;;;5094791;28;19929;-77
2023/03/05 13:52:32;;;;;;;;;;;7.60;99.90;;;;;;5076864;28;19980;-77
2023/03/05 13:54:58;;;;;;;;;;;7.70;99.90;;;;;;5096834;28;19931;-78
2023/03/05 13:57:32;;;;;;;;;;;7.80;99.90;;;;;;5064821;28;19930;-77
2023/03/05 13:59:59;;;;;;;;;;;7.80;99.90;;;;;;5100092;28;19924;-77
2023/03/05 14:02:26;;;;;;;;;;;7.90;99.90;;;;;;5081316;28;19967;-78
2023/03/05 14:04:51;;;;;;;;;;;7.80;99.20;;;;;;5080315;28;19924;-77
2023/03/05 14:07:26;;;;;;;;;;;7.80;99.90;;;;;;5069306;28;19960;-78
2023/03/05 14:09:52;;;;;;;;;;;7.70;99.90;;;;;;5079881;28;19963;-78
2023/03/05 14:12:29;;;;;;;;;;;7.70;99.90;;;;;;5096364;28;19985;-78
2023/03/05 14:14:55;;;;;;;;;;;7.70;99.90;;;;;;5081143;28;20114;-77
2023/03/05 14:17:31;;;;;;;;;;;7.70;99.90;;;;;;5079302;28;19969;-78
2023/03/05 14:20:12;;;;;;;;;;;7.60;99.90;;;;;;5080842;28;19932;-78
2023/03/05 14:22:42;;;;;;;;;;;7.60;99.90;;;;;;5081231;28;19968;-77
2023/03/05 14:25:26;;;;;;;;;;;7.60;99.90;;;;;;5078950;28;19935;-77
2023/03/05 14:27:52;;;;;;;;;;;7.50;99.90;;;;;;5080477;28;19959;-78
2023/03/05 14:30:19;;;;;;;;;;;7.50;99.90;;;;;;5079213;28;19924;-77
2023/03/05 14:32:45;;;;;;;;;;;7.50;99.90;;;;;;5131233;27;19928;-77
2023/03/05 14:35:19;;;;;;;;;;;7.50;99.90;;;;;;5080565;28;19991;-78
2023/03/05 14:37:47;;;;;;;;;;;7.40;99.90;;;;;;5077922;28;19932;-78